sensor_id;sensor_type;location;lat;lon;timestamp;P1;durP1;ratioP1;P2;durP2;ratioP2
1350;SDS011;669;50.206;9.998;2023-09-08T00:01:31;4.23;;;3.80;;
1350;SDS011;669;50.206;9.998;2023-09-08T00:04:00;4.70;;;4.30;;
1350;SDS011;669;50.206;9.998;2023-09-08T00:06:29;4.70;;;4.30;;
1350;SDS011;669;50.206;9.998;2023-09-08T00:08:57;4.40;;;4.10;;
1350;SDS011;669;50.206;9.998;2023-09-08T00:11:25;4.93;;;4.43;;
1350;SDS011;669;50.206;9.998;2023-09-08T00:13:53;4.93;;;4.57;;
1350;SDS011;669;50.206;9.998;2023-09-08T00:16:21;4.90;;;4.50;;
1350;SDS011;669;50.206;9.998;2023-09-08T00:18:49;4.87;;;4.47;;
1350;SDS011;669;50.206;9.998;2023-09-08T00:21:18;5.27;;;4.83;;
1350;SDS011;669;50.206;9.998;2023-09-08T00:23:46;4.67;;;4.10;;
1350;SDS011;669;50.206;9.998;2023-09-08T00:26:14;5.10;;;4.70;;
1350;SDS011;669;50.206;9.998;2023-09-08T00:28:42;5.30;;;4.80;;
1350;SDS011;669;50.206;9.998;2023-09-08T00:31:10;4.40;;;4.10;;
1350;SDS011;669;50.206;9.998;2023-09-08T00:33:38;4.73;;;4.43;;
1350;SDS011;669;50.206;9.998;2023-09-08T00:36:07;4.50;;;4.20;;
1350;SDS011;669;50.206;9.998;2023-09-08T00:38:36;4.90;;;4.50;;
1350;SDS011;669;50.206;9.998;2023-09-08T00:41:04;5.17;;;4.77;;
1350;SDS011;669;50.206;9.998;2023-09-08T00:43:33;4.33;;;3.87;;
1350;SDS011;669;50.206;9.998;2023-09-08T00:46:01;4.40;;;4.10;;
1350;SDS011;669;50.206;9.998;2023-09-08T00:48:29;5.00;;;4.70;;
1350;SDS011;669;50.206;9.998;2023-09-08T00:50:58;5.20;;;4.80;;
1350;SDS011;669;50.206;9.998;2023-09-08T00:53:27;4.63;;;4.30;;
1350;SDS011;669;50.206;9.998;2023-09-08T00:55:57;5.07;;;4.67;;
1350;SDS011;669;50.206;9.998;2023-09-08T00:58:26;4.60;;;4.20;;
1350;SDS011;669;50.206;9.998;2023-09-08T01:00:54;5.07;;;4.67;;
1350;SDS011;669;50.206;9.998;2023-09-08T01:03:23;5.60;;;5.10;;
1350;SDS011;669;50.206;9.998;2023-09-08T01:05:51;5.80;;;5.30;;
1350;SDS011;669;50.206;9.998;2023-09-08T01:08:20;4.57;;;4.17;;
1350;SDS011;669;50.206;9.998;2023-09-08T01:10:48;5.03;;;4.60;;
1350;SDS011;669;50.206;9.998;2023-09-08T01:13:18;5.50;;;5.00;;
1350;SDS011;669;50.206;9.998;2023-09-08T01:15:45;5.27;;;4.70;;
1350;SDS011;669;50.206;9.998;2023-09-08T01:18:13;4.30;;;4.00;;
1350;SDS011;669;50.206;9.998;2023-09-08T01:20:47;4.50;;;4.20;;
1350;SDS011;669;50.206;9.998;2023-09-08T01:23:35;5.13;;;4.73;;
1350;SDS011;669;50.206;9.998;2023-09-08T01:26:13;5.90;;;5.40;;
1350;SDS011;669;50.206;9.998;2023-09-08T01:28:45;5.30;;;4.90;;
1350;SDS011;669;50.206;9.998;2023-09-08T01:31:16;5.30;;;4.90;;
1350;SDS011;669;50.206;9.998;2023-09-08T01:33:45;5.13;;;4.77;;
1350;SDS011;669;50.206;9.998;2023-09-08T01:36:13;5.00;;;4.60;;
1350;SDS011;669;50.206;9.998;2023-09-08T01:38:41;6.17;;;4.90;;
1350;SDS011;669;50.206;9.998;2023-09-08T01:41:09;4.80;;;4.40;;
1350;SDS011;669;50.206;9.998;2023-09-08T01:43:39;5.83;;;5.40;;
1350;SDS011;669;50.206;9.998;2023-09-08T01:46:07;5.53;;;5.13;;
1350;SDS011;669;50.206;9.998;2023-09-08T01:48:35;5.30;;;4.90;;
1350;SDS011;669;50.206;9.998;2023-09-08T01:51:03;5.37;;;4.87;;
1350;SDS011;669;50.206;9.998;2023-09-08T01:53:31;5.20;;;4.80;;
1350;SDS011;669;50.206;9.998;2023-09-08T01:55:59;5.97;;;5.27;;
1350;SDS011;669;50.206;9.998;2023-09-08T01:58:27;5.33;;;4.93;;
1350;SDS011;669;50.206;9.998;2023-09-08T02:00:58;6.40;;;5.83;;
1350;SDS011;669;50.206;9.998;2023-09-08T02:03:32;6.00;;;5.47;;
1350;SDS011;669;50.206;9.998;2023-09-08T02:06:00;5.20;;;4.80;;
1350;SDS011;669;50.206;9.998;2023-09-08T02:08:28;5.83;;;5.23;;
1350;SDS011;669;50.206;9.998;2023-09-08T02:10:56;5.70;;;5.30;;
1350;SDS011;669;50.206;9.998;2023-09-08T02:13:24;5.27;;;4.87;;
1350;SDS011;669;50.206;9.998;2023-09-08T02:15:52;5.70;;;5.30;;
1350;SDS011;669;50.206;9.998;2023-09-08T02:18:21;5.10;;;4.70;;
1350;SDS011;669;50.206;9.998;2023-09-08T02:20:51;5.90;;;5.40;;
1350;SDS011;669;50.206;9.998;2023-09-08T02:23:19;5.30;;;4.70;;
1350;SDS011;669;50.206;9.998;2023-09-08T02:25:47;5.60;;;5.10;;
1350;SDS011;669;50.206;9.998;2023-09-08T02:28:15;5.47;;;5.07;;
1350;SDS011;669;50.206;9.998;2023-09-08T02:30:43;5.90;;;5.40;;
1350;SDS011;669;50.206;9.998;2023-09-08T02:33:10;6.40;;;5.80;;
1350;SDS011;669;50.206;9.998;2023-09-08T02:35:40;6.63;;;6.03;;
1350;SDS011;669;50.206;9.998;2023-09-08T02:38:08;5.93;;;5.40;;
1350;SDS011;669;50.206;9.998;2023-09-08T02:40:37;5.80;;;5.30;;
1350;SDS011;669;50.206;9.998;2023-09-08T02:43:05;5.90;;;5.40;;
1350;SDS011;669;50.206;9.998;2023-09-08T02:45:33;5.40;;;5.00;;
1350;SDS011;669;50.206;9.998;2023-09-08T02:48:02;6.60;;;6.10;;
1350;SDS011;669;50.206;9.998;2023-09-08T02:50:30;5.50;;;5.10;;
1350;SDS011;669;50.206;9.998;2023-09-08T02:52:59;5.70;;;5.20;;
1350;SDS011;669;50.206;9.998;2023-09-08T02:55:27;6.13;;;5.63;;
1350;SDS011;669;50.206;9.998;2023-09-08T02:57:55;6.13;;;5.63;;
1350;SDS011;669;50.206;9.998;2023-09-08T03:00:24;6.00;;;5.50;;
1350;SDS011;669;50.206;9.998;2023-09-08T03:02:52;5.97;;;5.47;;
1350;SDS011;669;50.206;9.998;2023-09-08T03:05:20;6.80;;;6.20;;
1350;SDS011;669;50.206;9.998;2023-09-08T03:07:48;4.73;;;4.43;;
1350;SDS011;669;50.206;9.998;2023-09-08T03:10:17;5.77;;;5.27;;
1350;SDS011;669;50.206;9.998;2023-09-08T03:12:45;6.13;;;5.63;;
1350;SDS011;669;50.206;9.998;2023-09-08T03:15:13;6.53;;;5.93;;
1350;SDS011;669;50.206;9.998;2023-09-08T03:17:41;6.63;;;6.03;;
1350;SDS011;669;50.206;9.998;2023-09-08T03:20:09;6.60;;;5.90;;
1350;SDS011;669;50.206;9.998;2023-09-08T03:22:39;5.73;;;5.33;;
1350;SDS011;669;50.206;9.998;2023-09-08T03:25:07;5.60;;;5.20;;
1350;SDS011;669;50.206;9.998;2023-09-08T03:27:37;5.50;;;5.00;;
1350;SDS011;669;50.206;9.998;2023-09-08T03:30:05;6.80;;;6.20;;
1350;SDS011;669;50.206;9.998;2023-09-08T03:32:34;5.90;;;5.40;;
1350;SDS011;669;50.206;9.998;2023-09-08T03:35:02;6.03;;;5.53;;
1350;SDS011;669;50.206;9.998;2023-09-08T03:37:31;7.27;;;6.30;;
1350;SDS011;669;50.206;9.998;2023-09-08T03:39:59;5.93;;;5.33;;
1350;SDS011;669;50.206;9.998;2023-09-08T03:42:27;6.30;;;5.80;;
1350;SDS011;669;50.206;9.998;2023-09-08T03:44:56;5.53;;;5.03;;
1350;SDS011;669;50.206;9.998;2023-09-08T03:47:24;5.40;;;4.90;;
1350;SDS011;669;50.206;9.998;2023-09-08T03:49:52;8.13;;;6.23;;
1350;SDS011;669;50.206;9.998;2023-09-08T03:52:20;6.23;;;5.67;;
1350;SDS011;669;50.206;9.998;2023-09-08T03:54:49;6.80;;;6.30;;
1350;SDS011;669;50.206;9.998;2023-09-08T03:57:17;6.30;;;5.70;;
1350;SDS011;669;50.206;9.998;2023-09-08T03:59:45;6.43;;;5.83;;
1350;SDS011;669;50.206;9.998;2023-09-08T04:02:14;5.77;;;5.20;;
1350;SDS011;669;50.206;9.998;2023-09-08T04:04:42;6.87;;;6.30;;
1350;SDS011;669;50.206;9.998;2023-09-08T04:07:10;5.80;;;5.30;;
1350;SDS011;669;50.206;9.998;2023-09-08T04:09:38;7.03;;;5.90;;
1350;SDS011;669;50.206;9.998;2023-09-08T04:12:07;7.33;;;6.73;;
1350;SDS011;669;50.206;9.998;2023-09-08T04:14:37;8.70;;;6.57;;
1350;SDS011;669;50.206;9.998;2023-09-08T04:17:05;6.73;;;6.20;;
1350;SDS011;669;50.206;9.998;2023-09-08T04:19:35;6.23;;;5.73;;
1350;SDS011;669;50.206;9.998;2023-09-08T04:22:03;6.20;;;5.60;;
1350;SDS011;669;50.206;9.998;2023-09-08T04:24:34;5.90;;;5.43;;
1350;SDS011;669;50.206;9.998;2023-09-08T04:27:03;6.70;;;6.10;;
1350;SDS011;669;50.206;9.998;2023-09-08T04:29:32;6.83;;;6.13;;
1350;SDS011;669;50.206;9.998;2023-09-08T04:32:00;6.47;;;5.90;;
1350;SDS011;669;50.206;9.998;2023-09-08T04:34:37;6.40;;;5.73;;
1350;SDS011;669;50.206;9.998;2023-09-08T04:37:06;6.73;;;5.20;;
1350;SDS011;669;50.206;9.998;2023-09-08T04:39:34;5.63;;;5.23;;
1350;SDS011;669;50.206;9.998;2023-09-08T04:42:03;6.17;;;5.67;;
1350;SDS011;669;50.206;9.998;2023-09-08T04:44:32;5.30;;;4.90;;
1350;SDS011;669;50.206;9.998;2023-09-08T04:46:59;6.03;;;5.43;;
1350;SDS011;669;50.206;9.998;2023-09-08T04:49:28;5.37;;;4.97;;
1350;SDS011;669;50.206;9.998;2023-09-08T04:51:57;6.10;;;5.60;;
1350;SDS011;669;50.206;9.998;2023-09-08T04:54:25;5.50;;;5.10;;
1350;SDS011;669;50.206;9.998;2023-09-08T04:56:53;6.30;;;5.70;;
1350;SDS011;669;50.206;9.998;2023-09-08T04:59:37;6.17;;;5.60;;
1350;SDS011;669;50.206;9.998;2023-09-08T05:02:06;6.23;;;5.70;;
1350;SDS011;669;50.206;9.998;2023-09-08T05:04:34;5.30;;;4.90;;
1350;SDS011;669;50.206;9.998;2023-09-08T05:07:03;5.70;;;5.30;;
1350;SDS011;669;50.206;9.998;2023-09-08T05:09:31;6.30;;;5.70;;
1350;SDS011;669;50.206;9.998;2023-09-08T05:12:00;6.00;;;5.40;;
1350;SDS011;669;50.206;9.998;2023-09-08T05:14:28;6.33;;;5.60;;
1350;SDS011;669;50.206;9.998;2023-09-08T05:16:56;5.90;;;5.40;;
1350;SDS011;669;50.206;9.998;2023-09-08T05:19:24;5.40;;;4.90;;
1350;SDS011;669;50.206;9.998;2023-09-08T05:21:53;5.60;;;5.10;;
1350;SDS011;669;50.206;9.998;2023-09-08T05:24:23;5.40;;;5.00;;
1350;SDS011;669;50.206;9.998;2023-09-08T05:26:52;5.07;;;4.67;;
1350;SDS011;669;50.206;9.998;2023-09-08T05:29:20;5.43;;;4.43;;
1350;SDS011;669;50.206;9.998;2023-09-08T05:31:48;4.63;;;4.30;;
1350;SDS011;669;50.206;9.998;2023-09-08T05:34:18;5.00;;;4.60;;
1350;SDS011;669;50.206;9.998;2023-09-08T05:36:45;5.30;;;4.80;;
1350;SDS011;669;50.206;9.998;2023-09-08T05:39:14;4.97;;;4.60;;
1350;SDS011;669;50.206;9.998;2023-09-08T05:41:45;6.13;;;5.73;;
1350;SDS011;669;50.206;9.998;2023-09-08T05:44:13;4.70;;;4.30;;
1350;SDS011;669;50.206;9.998;2023-09-08T05:46:41;5.70;;;5.30;;
1350;SDS011;669;50.206;9.998;2023-09-08T05:49:09;5.37;;;4.87;;
1350;SDS011;669;50.206;9.998;2023-09-08T05:51:37;6.07;;;5.57;;
1350;SDS011;669;50.206;9.998;2023-09-08T05:54:05;4.80;;;4.40;;
1350;SDS011;669;50.206;9.998;2023-09-08T05:56:33;5.80;;;4.20;;
1350;SDS011;669;50.206;9.998;2023-09-08T05:59:03;4.43;;;4.13;;
1350;SDS011;669;50.206;9.998;2023-09-08T06:01:31;5.60;;;5.13;;
1350;SDS011;669;50.206;9.998;2023-09-08T06:04:00;5.07;;;4.67;;
1350;SDS011;669;50.206;9.998;2023-09-08T06:06:28;5.37;;;4.63;;
1350;SDS011;669;50.206;9.998;2023-09-08T06:08:56;4.47;;;4.07;;
1350;SDS011;669;50.206;9.998;2023-09-08T06:11:24;5.17;;;4.77;;
1350;SDS011;669;50.206;9.998;2023-09-08T06:13:52;6.17;;;4.33;;
1350;SDS011;669;50.206;9.998;2023-09-08T06:16:26;5.13;;;4.73;;
1350;SDS011;669;50.206;9.998;2023-09-08T06:18:54;4.80;;;4.50;;
1350;SDS011;669;50.206;9.998;2023-09-08T06:21:22;5.60;;;5.20;;
1350;SDS011;669;50.206;9.998;2023-09-08T06:23:50;4.60;;;4.20;;
1350;SDS011;669;50.206;9.998;2023-09-08T06:26:18;5.20;;;4.80;;
1350;SDS011;669;50.206;9.998;2023-09-08T06:28:46;4.63;;;4.23;;
1350;SDS011;669;50.206;9.998;2023-09-08T06:31:14;5.10;;;4.60;;
1350;SDS011;669;50.206;9.998;2023-09-08T06:33:43;4.70;;;4.30;;
1350;SDS011;669;50.206;9.998;2023-09-08T06:36:11;5.73;;;4.80;;
1350;SDS011;669;50.206;9.998;2023-09-08T06:38:40;5.20;;;4.80;;
1350;SDS011;669;50.206;9.998;2023-09-08T06:41:08;5.77;;;5.30;;
1350;SDS011;669;50.206;9.998;2023-09-08T06:43:37;5.33;;;4.93;;
1350;SDS011;669;50.206;9.998;2023-09-08T06:46:05;5.20;;;4.70;;
1350;SDS011;669;50.206;9.998;2023-09-08T06:48:33;4.93;;;4.53;;
1350;SDS011;669;50.206;9.998;2023-09-08T06:51:02;5.13;;;4.67;;
1350;SDS011;669;50.206;9.998;2023-09-08T06:53:30;5.50;;;5.10;;
1350;SDS011;669;50.206;9.998;2023-09-08T06:55:59;5.50;;;5.10;;
1350;SDS011;669;50.206;9.998;2023-09-08T06:58:27;4.93;;;4.53;;
1350;SDS011;669;50.206;9.998;2023-09-08T07:00:56;4.80;;;4.30;;
1350;SDS011;669;50.206;9.998;2023-09-08T07:03:24;4.80;;;4.50;;
1350;SDS011;669;50.206;9.998;2023-09-08T07:05:53;8.33;;;5.47;;
1350;SDS011;669;50.206;9.998;2023-09-08T07:08:22;4.77;;;4.40;;
1350;SDS011;669;50.206;9.998;2023-09-08T07:10:51;5.90;;;5.40;;
1350;SDS011;669;50.206;9.998;2023-09-08T07:13:19;4.70;;;4.30;;
1350;SDS011;669;50.206;9.998;2023-09-08T07:15:48;5.63;;;4.87;;
1350;SDS011;669;50.206;9.998;2023-09-08T07:18:15;5.47;;;5.07;;
1350;SDS011;669;50.206;9.998;2023-09-08T07:20:45;5.77;;;4.90;;
1350;SDS011;669;50.206;9.998;2023-09-08T07:23:14;6.43;;;5.90;;
1350;SDS011;669;50.206;9.998;2023-09-08T07:25:46;5.30;;;4.80;;
1350;SDS011;669;50.206;9.998;2023-09-08T07:28:14;5.17;;;4.70;;
1350;SDS011;669;50.206;9.998;2023-09-08T07:30:43;6.10;;;5.60;;
1350;SDS011;669;50.206;9.998;2023-09-08T07:33:11;5.53;;;4.70;;
1350;SDS011;669;50.206;9.998;2023-09-08T07:35:39;4.80;;;4.50;;
1350;SDS011;669;50.206;9.998;2023-09-08T07:38:08;5.53;;;5.13;;
1350;SDS011;669;50.206;9.998;2023-09-08T07:40:36;5.67;;;5.17;;
1350;SDS011;669;50.206;9.998;2023-09-08T07:43:05;4.70;;;4.30;;
1350;SDS011;669;50.206;9.998;2023-09-08T07:45:33;4.87;;;4.50;;
1350;SDS011;669;50.206;9.998;2023-09-08T07:48:01;4.97;;;4.60;;
1350;SDS011;669;50.206;9.998;2023-09-08T07:50:29;4.80;;;4.40;;
1350;SDS011;669;50.206;9.998;2023-09-08T07:52:57;4.17;;;3.90;;
1350;SDS011;669;50.206;9.998;2023-09-08T07:55:25;5.27;;;4.77;;
1350;SDS011;669;50.206;9.998;2023-09-08T07:57:55;4.97;;;4.50;;
1350;SDS011;669;50.206;9.998;2023-09-08T08:00:25;5.90;;;5.40;;
1350;SDS011;669;50.206;9.998;2023-09-08T08:02:54;5.50;;;4.93;;
1350;SDS011;669;50.206;9.998;2023-09-08T08:05:23;5.03;;;4.53;;
1350;SDS011;669;50.206;9.998;2023-09-08T08:07:52;5.40;;;4.90;;
1350;SDS011;669;50.206;9.998;2023-09-08T08:10:20;5.57;;;5.17;;
1350;SDS011;669;50.206;9.998;2023-09-08T08:12:48;4.73;;;3.97;;
1350;SDS011;669;50.206;9.998;2023-09-08T08:15:18;5.20;;;4.20;;
1350;SDS011;669;50.206;9.998;2023-09-08T08:17:48;5.37;;;4.97;;
1350;SDS011;669;50.206;9.998;2023-09-08T08:20:16;4.60;;;4.20;;
1350;SDS011;669;50.206;9.998;2023-09-08T08:22:44;4.43;;;4.13;;
1350;SDS011;669;50.206;9.998;2023-09-08T08:25:13;5.13;;;4.63;;
1350;SDS011;669;50.206;9.998;2023-09-08T08:27:42;4.57;;;4.27;;
1350;SDS011;669;50.206;9.998;2023-09-08T08:30:11;5.00;;;4.57;;
1350;SDS011;669;50.206;9.998;2023-09-08T08:32:39;4.87;;;4.50;;
1350;SDS011;669;50.206;9.998;2023-09-08T08:35:09;5.23;;;4.73;;
1350;SDS011;669;50.206;9.998;2023-09-08T08:37:39;4.20;;;3.87;;
1350;SDS011;669;50.206;9.998;2023-09-08T08:40:09;5.50;;;4.73;;
1350;SDS011;669;50.206;9.998;2023-09-08T08:42:38;4.70;;;4.30;;
1350;SDS011;669;50.206;9.998;2023-09-08T08:45:07;5.33;;;4.93;;
1350;SDS011;669;50.206;9.998;2023-09-08T08:47:36;5.30;;;4.90;;
1350;SDS011;669;50.206;9.998;2023-09-08T08:50:04;4.43;;;4.13;;
1350;SDS011;669;50.206;9.998;2023-09-08T08:52:38;5.07;;;4.63;;
1350;SDS011;669;50.206;9.998;2023-09-08T08:55:07;6.87;;;4.40;;
1350;SDS011;669;50.206;9.998;2023-09-08T08:57:36;4.40;;;4.10;;
1350;SDS011;669;50.206;9.998;2023-09-08T09:00:06;6.67;;;4.63;;
1350;SDS011;669;50.206;9.998;2023-09-08T09:02:39;4.70;;;4.30;;
1350;SDS011;669;50.206;9.998;2023-09-08T09:05:08;6.17;;;4.67;;
1350;SDS011;669;50.206;9.998;2023-09-08T09:07:39;4.37;;;4.07;;
1350;SDS011;669;50.206;9.998;2023-09-08T09:10:08;4.80;;;4.30;;
1350;SDS011;669;50.206;9.998;2023-09-08T09:12:37;4.50;;;4.20;;
1350;SDS011;669;50.206;9.998;2023-09-08T09:15:06;4.50;;;4.20;;
1350;SDS011;669;50.206;9.998;2023-09-08T09:17:34;5.20;;;4.70;;
1350;SDS011;669;50.206;9.998;2023-09-08T09:20:13;4.93;;;4.57;;
1350;SDS011;669;50.206;9.998;2023-09-08T09:22:45;4.27;;;3.97;;
1350;SDS011;669;50.206;9.998;2023-09-08T09:25:20;4.70;;;4.40;;
1350;SDS011;669;50.206;9.998;2023-09-08T09:27:51;4.60;;;4.10;;
1350;SDS011;669;50.206;9.998;2023-09-08T09:30:20;4.93;;;4.50;;
1350;SDS011;669;50.206;9.998;2023-09-08T09:32:48;4.70;;;4.40;;
1350;SDS011;669;50.206;9.998;2023-09-08T09:35:38;5.07;;;4.17;;
1350;SDS011;669;50.206;9.998;2023-09-08T09:38:08;7.03;;;4.60;;
1350;SDS011;669;50.206;9.998;2023-09-08T09:40:37;4.33;;;4.03;;
1350;SDS011;669;50.206;9.998;2023-09-08T09:43:06;4.10;;;3.80;;
1350;SDS011;669;50.206;9.998;2023-09-08T09:45:35;4.40;;;4.10;;
1350;SDS011;669;50.206;9.998;2023-09-08T09:48:04;4.50;;;4.20;;
1350;SDS011;669;50.206;9.998;2023-09-08T09:50:34;4.33;;;4.03;;
1350;SDS011;669;50.206;9.998;2023-09-08T09:53:08;4.87;;;4.13;;
1350;SDS011;669;50.206;9.998;2023-09-08T09:55:38;4.23;;;3.93;;
1350;SDS011;669;50.206;9.998;2023-09-08T09:58:07;5.70;;;4.10;;
1350;SDS011;669;50.206;9.998;2023-09-08T10:00:37;3.90;;;3.57;;
1350;SDS011;669;50.206;9.998;2023-09-08T10:03:07;3.67;;;3.47;;
1350;SDS011;669;50.206;9.998;2023-09-08T10:05:37;4.80;;;4.40;;
1350;SDS011;669;50.206;9.998;2023-09-08T10:08:05;5.20;;;3.93;;
1350;SDS011;669;50.206;9.998;2023-09-08T10:10:35;3.97;;;3.70;;
1350;SDS011;669;50.206;9.998;2023-09-08T10:13:05;4.50;;;4.20;;
1350;SDS011;669;50.206;9.998;2023-09-08T10:15:34;3.90;;;3.60;;
1350;SDS011;669;50.206;9.998;2023-09-08T10:18:04;6.30;;;4.43;;
1350;SDS011;669;50.206;9.998;2023-09-08T10:20:33;4.70;;;4.30;;
1350;SDS011;669;50.206;9.998;2023-09-08T10:23:04;4.73;;;4.30;;
1350;SDS011;669;50.206;9.998;2023-09-08T10:25:39;4.73;;;4.43;;
1350;SDS011;669;50.206;9.998;2023-09-08T10:28:12;4.80;;;4.40;;
1350;SDS011;669;50.206;9.998;2023-09-08T10:30:40;5.50;;;4.43;;
1350;SDS011;669;50.206;9.998;2023-09-08T10:33:09;4.93;;;4.43;;
1350;SDS011;669;50.206;9.998;2023-09-08T10:35:38;4.50;;;4.10;;
1350;SDS011;669;50.206;9.998;2023-09-08T10:38:22;4.77;;;4.47;;
1350;SDS011;669;50.206;9.998;2023-09-08T10:40:52;4.23;;;3.93;;
1350;SDS011;669;50.206;9.998;2023-09-08T10:43:21;5.23;;;4.17;;
1350;SDS011;669;50.206;9.998;2023-09-08T10:45:51;4.27;;;4.00;;
1350;SDS011;669;50.206;9.998;2023-09-08T10:48:19;4.63;;;4.27;;
1350;SDS011;669;50.206;9.998;2023-09-08T10:50:47;4.67;;;4.37;;
1350;SDS011;669;50.206;9.998;2023-09-08T10:53:15;5.23;;;4.87;;
1350;SDS011;669;50.206;9.998;2023-09-08T10:55:44;5.40;;;4.90;;
1350;SDS011;669;50.206;9.998;2023-09-08T10:58:39;4.80;;;4.40;;
1350;SDS011;669;50.206;9.998;2023-09-08T11:01:12;4.37;;;3.97;;
1350;SDS011;669;50.206;9.998;2023-09-08T11:03:44;4.80;;;4.40;;
1350;SDS011;669;50.206;9.998;2023-09-08T11:06:16;4.40;;;4.00;;
1350;SDS011;669;50.206;9.998;2023-09-08T11:08:45;4.70;;;4.40;;
1350;SDS011;669;50.206;9.998;2023-09-08T11:11:15;4.90;;;4.50;;
1350;SDS011;669;50.206;9.998;2023-09-08T11:13:45;4.33;;;4.03;;
1350;SDS011;669;50.206;9.998;2023-09-08T11:16:14;4.50;;;4.20;;
1350;SDS011;669;50.206;9.998;2023-09-08T11:18:42;4.63;;;4.33;;
1350;SDS011;669;50.206;9.998;2023-09-08T11:21:10;3.97;;;3.67;;
1350;SDS011;669;50.206;9.998;2023-09-08T11:23:38;4.63;;;4.33;;
1350;SDS011;669;50.206;9.998;2023-09-08T11:26:06;4.20;;;3.53;;
1350;SDS011;669;50.206;9.998;2023-09-08T11:28:35;4.50;;;4.20;;
1350;SDS011;669;50.206;9.998;2023-09-08T11:31:06;4.70;;;4.30;;
1350;SDS011;669;50.206;9.998;2023-09-08T11:33:35;6.03;;;4.17;;
1350;SDS011;669;50.206;9.998;2023-09-08T11:36:11;4.63;;;4.23;;
1350;SDS011;669;50.206;9.998;2023-09-08T11:38:43;4.23;;;3.93;;
1350;SDS011;669;50.206;9.998;2023-09-08T11:41:11;4.63;;;4.33;;
1350;SDS011;669;50.206;9.998;2023-09-08T11:43:40;4.20;;;3.90;;
1350;SDS011;669;50.206;9.998;2023-09-08T11:46:09;5.37;;;5.07;;
1350;SDS011;669;50.206;9.998;2023-09-08T11:48:38;5.47;;;5.07;;
1350;SDS011;669;50.206;9.998;2023-09-08T11:51:06;5.33;;;4.07;;
1350;SDS011;669;50.206;9.998;2023-09-08T11:53:35;4.47;;;4.20;;
1350;SDS011;669;50.206;9.998;2023-09-08T11:56:04;4.53;;;4.23;;
1350;SDS011;669;50.206;9.998;2023-09-08T11:58:32;5.60;;;5.10;;
1350;SDS011;669;50.206;9.998;2023-09-08T12:01:01;4.40;;;4.10;;
1350;SDS011;669;50.206;9.998;2023-09-08T12:03:32;4.83;;;4.43;;
1350;SDS011;669;50.206;9.998;2023-09-08T12:06:00;4.53;;;4.20;;
1350;SDS011;669;50.206;9.998;2023-09-08T12:08:29;4.30;;;3.90;;
1350;SDS011;669;50.206;9.998;2023-09-08T12:10:58;4.90;;;4.50;;
1350;SDS011;669;50.206;9.998;2023-09-08T12:13:26;4.70;;;4.23;;
1350;SDS011;669;50.206;9.998;2023-09-08T12:15:54;4.30;;;4.00;;
1350;SDS011;669;50.206;9.998;2023-09-08T12:21:07;4.87;;;4.47;;
1350;SDS011;669;50.206;9.998;2023-09-08T12:23:46;4.97;;;4.57;;
1350;SDS011;669;50.206;9.998;2023-09-08T12:26:15;4.30;;;3.90;;
1350;SDS011;669;50.206;9.998;2023-09-08T12:28:44;7.30;;;4.83;;
1350;SDS011;669;50.206;9.998;2023-09-08T12:31:13;4.00;;;3.70;;
1350;SDS011;669;50.206;9.998;2023-09-08T12:33:43;4.23;;;3.97;;
1350;SDS011;669;50.206;9.998;2023-09-08T12:36:12;3.73;;;3.43;;
1350;SDS011;669;50.206;9.998;2023-09-08T12:38:41;3.60;;;3.40;;
1350;SDS011;669;50.206;9.998;2023-09-08T12:41:15;4.17;;;3.77;;
1350;SDS011;669;50.206;9.998;2023-09-08T12:43:43;4.07;;;3.77;;
1350;SDS011;669;50.206;9.998;2023-09-08T12:46:11;4.27;;;3.97;;
1350;SDS011;669;50.206;9.998;2023-09-08T12:48:40;4.37;;;4.00;;
1350;SDS011;669;50.206;9.998;2023-09-08T12:51:09;4.20;;;3.90;;
1350;SDS011;669;50.206;9.998;2023-09-08T12:53:37;4.10;;;3.80;;
1350;SDS011;669;50.206;9.998;2023-09-08T12:56:05;4.70;;;3.90;;
1350;SDS011;669;50.206;9.998;2023-09-08T12:58:33;3.93;;;3.63;;
1350;SDS011;669;50.206;9.998;2023-09-08T13:01:01;3.70;;;3.40;;
1350;SDS011;669;50.206;9.998;2023-09-08T13:03:31;3.57;;;3.37;;
1350;SDS011;669;50.206;9.998;2023-09-08T13:05:59;3.43;;;3.23;;
1350;SDS011;669;50.206;9.998;2023-09-08T13:08:29;3.63;;;3.33;;
1350;SDS011;669;50.206;9.998;2023-09-08T13:10:57;4.10;;;3.70;;
1350;SDS011;669;50.206;9.998;2023-09-08T13:13:25;4.60;;;4.20;;
1350;SDS011;669;50.206;9.998;2023-09-08T13:15:55;4.37;;;4.07;;
1350;SDS011;669;50.206;9.998;2023-09-08T13:18:24;4.63;;;3.93;;
1350;SDS011;669;50.206;9.998;2023-09-08T13:20:52;3.93;;;3.63;;
1350;SDS011;669;50.206;9.998;2023-09-08T13:23:19;3.40;;;3.20;;
1350;SDS011;669;50.206;9.998;2023-09-08T13:25:49;3.40;;;3.20;;
1350;SDS011;669;50.206;9.998;2023-09-08T13:28:17;3.87;;;3.57;;
1350;SDS011;669;50.206;9.998;2023-09-08T13:30:45;4.23;;;3.90;;
1350;SDS011;669;50.206;9.998;2023-09-08T13:33:13;3.97;;;3.67;;
1350;SDS011;669;50.206;9.998;2023-09-08T13:35:41;4.20;;;3.63;;
1350;SDS011;669;50.206;9.998;2023-09-08T13:38:09;3.73;;;3.53;;
1350;SDS011;669;50.206;9.998;2023-09-08T13:40:37;4.20;;;3.80;;
1350;SDS011;669;50.206;9.998;2023-09-08T13:43:07;4.20;;;3.90;;
1350;SDS011;669;50.206;9.998;2023-09-08T13:45:35;3.80;;;3.53;;
1350;SDS011;669;50.206;9.998;2023-09-08T13:48:03;4.47;;;4.03;;
1350;SDS011;669;50.206;9.998;2023-09-08T13:50:33;3.80;;;3.50;;
1350;SDS011;669;50.206;9.998;2023-09-08T13:53:03;4.23;;;3.83;;
1350;SDS011;669;50.206;9.998;2023-09-08T13:55:34;3.67;;;3.47;;
1350;SDS011;669;50.206;9.998;2023-09-08T13:58:09;3.90;;;3.60;;
1350;SDS011;669;50.206;9.998;2023-09-08T14:00:39;5.57;;;3.50;;
1350;SDS011;669;50.206;9.998;2023-09-08T14:03:11;4.10;;;3.70;;
1350;SDS011;669;50.206;9.998;2023-09-08T14:05:43;3.83;;;3.50;;
1350;SDS011;669;50.206;9.998;2023-09-08T14:08:18;3.17;;;2.97;;
1350;SDS011;669;50.206;9.998;2023-09-08T14:10:54;3.27;;;3.07;;
1350;SDS011;669;50.206;9.998;2023-09-08T14:13:26;3.63;;;3.40;;
1350;SDS011;669;50.206;9.998;2023-09-08T14:15:55;5.73;;;4.10;;
1350;SDS011;669;50.206;9.998;2023-09-08T14:18:25;4.13;;;3.73;;
1350;SDS011;669;50.206;9.998;2023-09-08T14:20:53;5.60;;;4.10;;
1350;SDS011;669;50.206;9.998;2023-09-08T14:23:21;3.27;;;3.07;;
1350;SDS011;669;50.206;9.998;2023-09-08T14:25:49;3.43;;;3.13;;
1350;SDS011;669;50.206;9.998;2023-09-08T14:28:17;3.37;;;3.10;;
1350;SDS011;669;50.206;9.998;2023-09-08T14:30:47;3.60;;;3.40;;
1350;SDS011;669;50.206;9.998;2023-09-08T14:33:16;3.23;;;3.03;;
1350;SDS011;669;50.206;9.998;2023-09-08T14:35:45;3.67;;;3.37;;
1350;SDS011;669;50.206;9.998;2023-09-08T14:38:17;3.73;;;3.30;;
1350;SDS011;669;50.206;9.998;2023-09-08T14:40:53;3.40;;;3.20;;
1350;SDS011;669;50.206;9.998;2023-09-08T14:43:23;3.53;;;3.23;;
1350;SDS011;669;50.206;9.998;2023-09-08T14:45:52;4.30;;;3.70;;
1350;SDS011;669;50.206;9.998;2023-09-08T14:48:23;3.60;;;3.30;;
1350;SDS011;669;50.206;9.998;2023-09-08T14:50:51;2.80;;;2.70;;
1350;SDS011;669;50.206;9.998;2023-09-08T14:53:19;4.73;;;3.40;;
1350;SDS011;669;50.206;9.998;2023-09-08T14:55:48;3.87;;;3.57;;
1350;SDS011;669;50.206;9.998;2023-09-08T14:58:16;3.17;;;2.97;;
1350;SDS011;669;50.206;9.998;2023-09-08T15:00:44;3.60;;;3.33;;
1350;SDS011;669;50.206;9.998;2023-09-08T15:03:14;3.43;;;3.20;;
1350;SDS011;669;50.206;9.998;2023-09-08T15:05:42;3.37;;;3.07;;
1350;SDS011;669;50.206;9.998;2023-09-08T15:08:10;3.60;;;3.40;;
1350;SDS011;669;50.206;9.998;2023-09-08T15:10:38;3.67;;;3.37;;
1350;SDS011;669;50.206;9.998;2023-09-08T15:13:06;3.47;;;3.17;;
1350;SDS011;669;50.206;9.998;2023-09-08T15:15:34;3.10;;;2.90;;
1350;SDS011;669;50.206;9.998;2023-09-08T15:18:03;3.00;;;2.80;;
1350;SDS011;669;50.206;9.998;2023-09-08T15:20:32;3.67;;;3.43;;
1350;SDS011;669;50.206;9.998;2023-09-08T15:23:01;3.33;;;3.10;;
1350;SDS011;669;50.206;9.998;2023-09-08T15:25:32;3.27;;;3.07;;
1350;SDS011;669;50.206;9.998;2023-09-08T15:28:00;6.57;;;3.90;;
1350;SDS011;669;50.206;9.998;2023-09-08T15:30:27;3.77;;;3.03;;
1350;SDS011;669;50.206;9.998;2023-09-08T15:32:56;3.97;;;3.67;;
1350;SDS011;669;50.206;9.998;2023-09-08T15:35:24;3.40;;;3.10;;
1350;SDS011;669;50.206;9.998;2023-09-08T15:37:53;3.73;;;3.43;;
1350;SDS011;669;50.206;9.998;2023-09-08T15:40:21;3.20;;;3.00;;
1350;SDS011;669;50.206;9.998;2023-09-08T15:42:49;3.80;;;3.47;;
1350;SDS011;669;50.206;9.998;2023-09-08T15:45:18;2.90;;;2.70;;